Time;durP1;ratioP1;P1;durP2;ratioP2;P2;SDS_P1;SDS_P2;PMS_P1;PMS_P2;Temp;Humidity;BMP_temperature;BMP_pressure;BME280_temperature;BME280_humidity;BME280_pressure;Samples;Min_cycle;Max_cycle;Signal;HPM_P1;HPM_P2
2022/10/26 00:01:24;;;;;;;9.93;2.42;;;;;;;;;;5009525;28;20769;-66
2022/10/26 00:03:49;;;;;;;6.40;1.80;;;;;;;;;;5009427;28;20026;-67
2022/10/26 00:06:16;;;;;;;13.10;1.70;;;;;;;;;;5007895;28;20740;-67
2022/10/26 00:08:41;;;;;;;14.43;1.83;;;;;;;;;;5009746;28;20277;-70
2022/10/26 00:11:06;;;;;;;5.28;1.60;;;;;;;;;;5009478;28;20366;-67
2022/10/26 00:13:32;;;;;;;9.40;1.92;;;;;;;;;;5006733;28;20725;-67
2022/10/26 00:15:57;;;;;;;13.60;1.75;;;;;;;;;;5009649;28;20037;-70
2022/10/26 00:18:23;;;;;;;12.48;1.45;;;;;;;;;;5009485;28;20017;-67
2022/10/26 00:20:48;;;;;;;9.63;2.28;;;;;;;;;;5010355;28;20014;-67
2022/10/26 00:23:13;;;;;;;7.57;1.60;;;;;;;;;;5009463;28;20071;-69
2022/10/26 00:25:39;;;;;;;10.60;1.70;;;;;;;;;;5010057;28;20022;-67
2022/10/26 00:28:04;;;;;;;7.68;1.50;;;;;;;;;;5007660;28;20034;-67
2022/10/26 00:30:29;;;;;;;5.97;1.50;;;;;;;;;;4996120;28;20033;-67
2022/10/26 00:32:54;;;;;;;9.05;1.30;;;;;;;;;;5007064;28;20285;-70
2022/10/26 00:35:19;;;;;;;14.43;2.28;;;;;;;;;;5000775;28;20097;-70
2022/10/26 00:37:45;;;;;;;5.03;1.00;;;;;;;;;;5009749;28;20033;-70
2022/10/26 00:40:10;;;;;;;6.75;1.48;;;;;;;;;;5009492;28;20249;-67
2022/10/26 00:42:35;;;;;;;7.15;1.50;;;;;;;;;;5010291;28;20032;-68
2022/10/26 00:47:38;;;;;;;6.45;1.40;;;;;;;;;;5056616;23;20355;-85
2022/10/26 00:50:09;;;;;;;11.27;1.50;;;;;;;;;;5042102;28;20034;-84
2022/10/26 00:52:35;;;;;;;6.95;1.30;;;;;;;;;;5009354;28;20022;-85
2022/10/26 00:55:00;;;;;;;6.68;1.67;;;;;;;;;;5008700;28;20071;-85
2022/10/26 00:57:26;;;;;;;9.52;1.42;;;;;;;;;;5014738;28;20014;-85
2022/10/26 00:59:52;;;;;;;8.73;1.50;;;;;;;;;;5006509;28;20022;-85
2022/10/26 01:02:18;;;;;;;7.47;1.50;;;;;;;;;;5005435;28;20030;-86
2022/10/26 01:04:45;;;;;;;3.15;1.17;;;;;;;;;;5010340;28;20105;-85
2022/10/26 01:07:10;;;;;;;6.45;1.73;;;;;;;;;;5009323;28;20033;-85
2022/10/26 01:09:36;;;;;;;14.77;2.33;;;;;;;;;;5025157;28;20022;-84
2022/10/26 01:12:01;;;;;;;10.75;1.50;;;;;;;;;;5010605;28;20097;-84
2022/10/26 01:14:26;;;;;;;4.75;2.00;;;;;;;;;;5007799;28;20547;-86
2022/10/26 01:17:06;;;;;;;9.57;1.95;;;;;;;;;;5008844;28;20010;-86
2022/10/26 01:19:50;;;;;;;8.95;1.50;;;;;;;;;;5009158;28;20504;-84
2022/10/26 01:22:25;;;;;;;11.50;1.67;;;;;;;;;;5005727;28;20029;-85
2022/10/26 01:25:02;;;;;;;5.82;1.80;;;;;;;;;;5016302;28;20100;-85
2022/10/26 01:27:38;;;;;;;4.18;1.33;;;;;;;;;;5010393;28;20043;-85
2022/10/26 01:30:12;;;;;;;12.13;1.88;;;;;;;;;;5010120;28;20080;-86
2022/10/26 01:32:37;;;;;;;9.05;1.75;;;;;;;;;;5006094;28;20033;-86
2022/10/26 01:35:02;;;;;;;9.60;1.70;;;;;;;;;;5010122;28;20017;-86
2022/10/26 01:37:29;;;;;;;8.33;1.40;;;;;;;;;;5008470;28;20025;-85
2022/10/26 01:40:01;;;;;;;6.30;1.70;;;;;;;;;;5010076;28;20072;-85
2022/10/26 01:42:26;;;;;;;7.07;1.13;;;;;;;;;;5020313;28;20072;-85
2022/10/26 01:44:53;;;;;;;5.78;1.42;;;;;;;;;;5022700;28;20053;-86
2022/10/26 01:47:19;;;;;;;8.80;1.50;;;;;;;;;;5007306;28;20386;-86
2022/10/26 01:49:46;;;;;;;12.73;1.55;;;;;;;;;;5009443;28;20032;-86
2022/10/26 01:52:12;;;;;;;13.70;1.40;;;;;;;;;;5005249;28;20029;-85
2022/10/26 01:54:37;;;;;;;19.83;1.50;;;;;;;;;;5010162;28;20014;-87
2022/10/26 01:57:04;;;;;;;10.68;1.42;;;;;;;;;;5021698;28;20045;-84
2022/10/26 01:59:58;;;;;;;4.88;0.95;;;;;;;;;;5024849;28;20028;-85
2022/10/26 02:02:42;;;;;;;9.75;1.40;;;;;;;;;;5006727;28;20034;-86
2022/10/26 02:05:10;;;;;;;8.15;1.25;;;;;;;;;;5009047;28;20088;-85
2022/10/26 02:07:45;;;;;;;5.90;1.35;;;;;;;;;;5008042;28;20026;-87
2022/10/26 02:10:10;;;;;;;8.57;1.90;;;;;;;;;;5008686;28;20053;-86
2022/10/26 02:12:45;;;;;;;12.77;1.50;;;;;;;;;;5006612;28;20054;-86
2022/10/26 02:15:18;;;;;;;11.82;2.03;;;;;;;;;;5008699;28;20276;-86
2022/10/26 02:17:56;;;;;;;5.32;1.02;;;;;;;;;;5007850;28;20049;-85
2022/10/26 02:20:32;;;;;;;9.98;1.40;;;;;;;;;;5014533;28;20024;-85
2022/10/26 02:22:57;;;;;;;13.73;1.75;;;;;;;;;;5005429;28;20248;-86
2022/10/26 02:25:26;;;;;;;3.45;1.38;;;;;;;;;;5013694;28;20021;-86
2022/10/26 02:27:57;;;;;;;5.05;0.95;;;;;;;;;;5006437;28;20305;-86
2022/10/26 02:30:22;;;;;;;7.85;1.20;;;;;;;;;;5008986;28;20485;-84
2022/10/26 02:32:49;;;;;;;6.43;1.20;;;;;;;;;;5004978;28;20079;-85
2022/10/26 02:35:15;;;;;;;8.73;1.65;;;;;;;;;;5005512;28;20021;-86
2022/10/26 02:37:42;;;;;;;7.63;1.08;;;;;;;;;;5006697;28;20071;-86
2022/10/26 02:40:10;;;;;;;6.90;1.40;;;;;;;;;;5008938;28;20433;-87
2022/10/26 02:42:35;;;;;;;8.35;1.60;;;;;;;;;;5008930;28;20036;-86
2022/10/26 02:45:08;;;;;;;9.75;1.77;;;;;;;;;;5009432;28;20092;-85
2022/10/26 02:47:34;;;;;;;18.17;2.28;;;;;;;;;;5008692;28;20040;-86
2022/10/26 02:49:59;;;;;;;12.68;1.60;;;;;;;;;;5005953;28;20030;-87
2022/10/26 02:52:24;;;;;;;4.22;1.45;;;;;;;;;;5006957;28;20494;-87
2022/10/26 02:55:09;;;;;;;5.43;1.63;;;;;;;;;;5006731;28;20010;-85
2022/10/26 02:57:39;;;;;;;10.82;1.67;;;;;;;;;;5006394;28;20026;-86
2022/10/26 03:00:10;;;;;;;10.73;2.08;;;;;;;;;;5008907;28;20025;-85
2022/10/26 03:02:35;;;;;;;;;;;;;;;;;;5008642;28;20550;-85
2022/10/26 03:05:09;;;;;;;9.20;1.95;;;;;;;;;;5013174;28;20000;-86
2022/10/26 03:07:34;;;;;;;2.53;1.08;;;;;;;;;;5006896;28;20065;-86
2022/10/26 03:09:59;;;;;;;8.07;1.52;;;;;;;;;;5003612;28;20026;-85
2022/10/26 03:12:25;;;;;;;6.68;1.60;;;;;;;;;;5006209;28;20497;-86
2022/10/26 03:14:50;;;;;;;8.20;1.40;;;;;;;;;;5016838;28;20036;-86
2022/10/26 03:17:15;;;;;;;5.57;1.43;;;;;;;;;;5008994;28;20029;-84
2022/10/26 03:19:40;;;;;;;15.20;1.70;;;;;;;;;;5008121;28;20331;-86
2022/10/26 03:22:05;;;;;;;13.88;1.52;;;;;;;;;;5005648;28;20794;-85
2022/10/26 03:24:31;;;;;;;12.37;2.00;;;;;;;;;;5007440;28;20568;-86
2022/10/26 03:26:56;;;;;;;12.00;2.30;;;;;;;;;;5022233;28;20273;-86
2022/10/26 03:29:21;;;;;;;7.55;1.52;;;;;;;;;;5006177;28;20022;-86
2022/10/26 03:31:47;;;;;;;3.53;1.00;;;;;;;;;;5010999;28;20044;-85
2022/10/26 03:34:12;;;;;;;2.70;0.90;;;;;;;;;;5014865;28;20272;-85
2022/10/26 03:36:38;;;;;;;4.47;1.35;;;;;;;;;;5009322;28;20069;-85
2022/10/26 03:39:03;;;;;;;3.70;1.00;;;;;;;;;;5010718;28;20026;-85
2022/10/26 03:41:28;;;;;;;5.80;1.30;;;;;;;;;;5009601;28;20260;-85
2022/10/26 03:43:53;;;;;;;9.35;1.77;;;;;;;;;;5006284;28;20285;-86
2022/10/26 03:46:18;;;;;;;12.17;3.20;;;;;;;;;;5007760;28;20026;-85
2022/10/26 03:48:44;;;;;;;10.23;0.98;;;;;;;;;;5005146;28;20264;-86
2022/10/26 03:51:09;;;;;;;6.23;1.37;;;;;;;;;;5006420;28;20025;-86
2022/10/26 03:53:34;;;;;;;3.90;1.30;;;;;;;;;;5003661;28;20799;-87
2022/10/26 03:55:59;;;;;;;6.18;1.20;;;;;;;;;;5007527;28;20381;-86
2022/10/26 03:58:24;;;;;;;7.57;1.73;;;;;;;;;;5002419;28;20022;-85
2022/10/26 04:00:50;;;;;;;9.60;2.33;;;;;;;;;;5001667;28;20398;-85
2022/10/26 04:03:15;;;;;;;4.30;1.40;;;;;;;;;;5009387;28;20105;-86
2022/10/26 04:05:40;;;;;;;12.32;1.63;;;;;;;;;;5009053;28;20028;-86
2022/10/26 04:08:05;;;;;;;10.60;1.48;;;;;;;;;;5004171;28;20029;-87
2022/10/26 04:10:31;;;;;;;4.68;1.70;;;;;;;;;;4999746;28;20066;-86
2022/10/26 04:12:57;;;;;;;4.85;2.03;;;;;;;;;;5005826;28;20029;-85
2022/10/26 04:15:23;;;;;;;9.20;1.58;;;;;;;;;;5005387;28;20068;-86
2022/10/26 04:17:54;;;;;;;10.60;1.92;;;;;;;;;;5007214;28;20101;-84
2022/10/26 04:20:19;;;;;;;3.85;1.42;;;;;;;;;;5003587;28;20509;-86
2022/10/26 04:22:44;;;;;;;12.13;1.63;;;;;;;;;;5005787;28;20021;-86
2022/10/26 04:25:11;;;;;;;8.02;1.48;;;;;;;;;;5003268;28;20033;-85
2022/10/26 04:27:36;;;;;;;7.97;2.60;;;;;;;;;;5005121;28;20436;-85
2022/10/26 04:30:01;;;;;;;6.75;2.05;;;;;;;;;;5015380;28;20014;-84
2022/10/26 04:32:26;;;;;;;6.25;1.02;;;;;;;;;;5005348;28;20018;-85
2022/10/26 04:34:53;;;;;;;1.90;1.20;;;;;;;;;;5005389;28;20358;-85
2022/10/26 04:37:18;;;;;;;7.15;1.73;;;;;;;;;;5003438;28;20350;-86
2022/10/26 04:39:43;;;;;;;3.60;0.90;;;;;;;;;;5026657;28;20041;-86
2022/10/26 04:42:09;;;;;;;11.27;2.37;;;;;;;;;;5026257;28;20041;-85
2022/10/26 04:44:34;;;;;;;15.70;2.40;;;;;;;;;;5011292;28;20652;-85
2022/10/26 04:46:59;;;;;;;4.60;1.13;;;;;;;;;;5008844;28;20453;-85
2022/10/26 04:49:24;;;;;;;10.07;1.13;;;;;;;;;;5009423;28;20540;-85
2022/10/26 04:51:49;;;;;;;8.20;1.10;;;;;;;;;;5012668;28;20018;-86
2022/10/26 04:54:15;;;;;;;11.60;1.50;;;;;;;;;;5007284;28;20520;-85
2022/10/26 04:56:40;;;;;;;16.67;1.67;;;;;;;;;;5007950;28;20022;-84
2022/10/26 04:59:05;;;;;;;5.05;1.23;;;;;;;;;;5011701;28;20108;-85
2022/10/26 05:01:30;;;;;;;8.07;1.20;;;;;;;;;;5009239;28;20080;-86
2022/10/26 05:03:56;;;;;;;6.78;1.85;;;;;;;;;;5009209;28;20273;-86
2022/10/26 05:06:21;;;;;;;9.63;1.35;;;;;;;;;;5010098;28;20503;-86
2022/10/26 05:08:47;;;;;;;4.47;1.13;;;;;;;;;;5009884;28;20262;-86
2022/10/26 05:11:12;;;;;;;9.38;1.60;;;;;;;;;;5020468;28;20067;-86
2022/10/26 05:13:37;;;;;;;8.52;1.77;;;;;;;;;;5010170;28;20397;-86
2022/10/26 05:16:02;;;;;;;4.25;1.55;;;;;;;;;;5015102;28;20022;-88
2022/10/26 05:18:28;;;;;;;4.75;1.17;;;;;;;;;;5008685;28;20022;-87
2022/10/26 05:20:53;;;;;;;8.93;1.85;;;;;;;;;;5009884;28;20028;-88
2022/10/26 05:23:19;;;;;;;7.90;0.90;;;;;;;;;;5007200;28;20022;-87
2022/10/26 05:25:44;;;;;;;4.40;1.17;;;;;;;;;;5007198;28;20028;-84
2022/10/26 05:28:12;;;;;;;2.35;0.68;;;;;;;;;;5009938;28;20033;-85
2022/10/26 05:30:37;;;;;;;8.23;1.35;;;;;;;;;;5009312;28;20046;-85
2022/10/26 05:33:02;;;;;;;1.13;0.52;;;;;;;;;;5023075;28;20025;-85
2022/10/26 05:35:28;;;;;;;9.85;1.17;;;;;;;;;;5026582;28;20022;-86
2022/10/26 05:37:53;;;;;;;5.35;1.00;;;;;;;;;;5011638;28;20025;-85
2022/10/26 05:40:19;;;;;;;5.15;1.00;;;;;;;;;;5011840;28;20117;-85
2022/10/26 05:42:44;;;;;;;3.03;1.00;;;;;;;;;;5009188;28;20076;-86
2022/10/26 05:45:09;;;;;;;6.72;0.82;;;;;;;;;;5009960;28;20034;-85
2022/10/26 05:47:42;;;;;;;5.60;0.82;;;;;;;;;;5007272;28;20049;-85
2022/10/26 05:50:08;;;;;;;5.63;1.35;;;;;;;;;;5007149;28;20065;-86
2022/10/26 05:52:39;;;;;;;1.98;0.60;;;;;;;;;;5008490;28;20057;-88
2022/10/26 05:55:06;;;;;;;5.10;1.08;;;;;;;;;;5024797;28;20164;-84
2022/10/26 05:57:31;;;;;;;2.92;0.93;;;;;;;;;;5003332;28;20521;-84
2022/10/26 05:59:56;;;;;;;3.67;0.80;;;;;;;;;;5008831;28;20022;-88
2022/10/26 06:02:40;;;;;;;7.40;1.15;;;;;;;;;;5008825;28;20113;-86
2022/10/26 06:05:09;;;;;;;1.77;0.90;;;;;;;;;;5005189;28;20029;-86
2022/10/26 06:07:35;;;;;;;5.35;0.80;;;;;;;;;;5006888;28;20548;-87
2022/10/26 06:10:00;;;;;;;7.57;1.15;;;;;;;;;;5005265;28;20022;-86
2022/10/26 06:12:25;;;;;;;2.30;0.70;;;;;;;;;;5006911;28;20022;-86
2022/10/26 06:14:51;;;;;;;2.13;1.10;;;;;;;;;;5023633;28;20022;-86
2022/10/26 06:17:27;;;;;;;2.28;0.80;;;;;;;;;;5012348;28;20021;-87
2022/10/26 06:20:10;;;;;;;3.75;1.13;;;;;;;;;;5007283;28;20477;-86
2022/10/26 06:22:35;;;;;;;4.13;0.93;;;;;;;;;;5024463;28;20033;-86
2022/10/26 06:25:04;;;;;;;9.45;0.90;;;;;;;;;;5011885;28;20073;-86
2022/10/26 06:27:37;;;;;;;5.03;0.80;;;;;;;;;;5005788;28;20029;-87
2022/10/26 06:30:10;;;;;;;10.10;1.20;;;;;;;;;;5008235;28;20088;-87
2022/10/26 06:32:35;;;;;;;6.95;1.05;;;;;;;;;;5010420;28;20046;-87
2022/10/26 06:35:09;;;;;;;3.60;1.10;;;;;;;;;;5003300;28;20072;-86
2022/10/26 06:37:36;;;;;;;4.82;1.40;;;;;;;;;;5003574;28;20521;-87
2022/10/26 06:40:01;;;;;;;9.20;1.33;;;;;;;;;;5010265;28;20096;-86
2022/10/26 06:42:27;;;;;;;6.95;1.50;;;;;;;;;;5009826;28;20046;-86
2022/10/26 06:44:52;;;;;;;6.25;1.00;;;;;;;;;;5025701;28;20125;-87
2022/10/26 06:47:30;;;;;;;1.52;0.52;;;;;;;;;;5011298;28;20503;-87
2022/10/26 06:50:10;;;;;;;3.67;0.90;;;;;;;;;;5025306;28;20392;-87
2022/10/26 06:52:52;;;;;;;3.00;0.95;;;;;;;;;;5008863;28;20489;-86
2022/10/26 06:55:18;;;;;;;6.05;1.20;;;;;;;;;;5023001;28;20108;-86
2022/10/26 06:57:43;;;;;;;2.90;0.70;;;;;;;;;;5008020;28;20485;-87
2022/10/26 07:00:15;;;;;;;2.20;0.60;;;;;;;;;;5008568;28;20022;-86
2022/10/26 07:02:41;;;;;;;4.68;1.50;;;;;;;;;;5005342;28;20030;-86
2022/10/26 07:05:11;;;;;;;9.20;1.50;;;;;;;;;;5005701;28;20028;-86
2022/10/26 07:07:39;;;;;;;8.63;1.02;;;;;;;;;;5006971;28;20125;-87
2022/10/26 07:10:05;;;;;;;37.63;2.38;;;;;;;;;;5006929;28;20025;-87
2022/10/26 07:12:31;;;;;;;1.23;0.52;;;;;;;;;;5008874;28;20018;-87
2022/10/26 07:14:56;;;;;;;4.03;1.08;;;;;;;;;;5000760;28;20021;-87
2022/10/26 07:17:21;;;;;;;2.13;0.70;;;;;;;;;;5006513;28;20025;-87
2022/10/26 07:19:46;;;;;;;4.55;1.35;;;;;;;;;;5008799;28;20288;-87
2022/10/26 07:22:11;;;;;;;1.70;0.83;;;;;;;;;;5018997;28;20030;-84
2022/10/26 07:24:37;;;;;;;6.63;1.30;;;;;;;;;;5007981;28;20414;-86
2022/10/26 07:27:02;;;;;;;4.53;1.58;;;;;;;;;;5007953;28;20277;-86
2022/10/26 07:29:27;;;;;;;9.18;1.30;;;;;;;;;;5007710;28;20030;-86
2022/10/26 07:31:52;;;;;;;5.95;0.98;;;;;;;;;;5010599;28;20251;-86
2022/10/26 07:34:18;;;;;;;3.40;0.75;;;;;;;;;;5004473;28;20026;-86
2022/10/26 07:36:43;;;;;;;7.95;1.55;;;;;;;;;;5005240;28;20026;-86
2022/10/26 07:39:08;;;;;;;8.00;1.13;;;;;;;;;;5021179;28;20497;-86
2022/10/26 07:41:34;;;;;;;6.45;1.50;;;;;;;;;;5007666;28;20096;-86
2022/10/26 07:43:59;;;;;;;3.10;0.85;;;;;;;;;;5007835;28;20466;-86
2022/10/26 07:46:24;;;;;;;3.97;1.27;;;;;;;;;;5025006;28;20386;-86
2022/10/26 07:48:50;;;;;;;6.65;1.20;;;;;;;;;;5006676;28;20018;-86
2022/10/26 07:51:15;;;;;;;3.35;1.30;;;;;;;;;;5016655;28;20052;-86
2022/10/26 07:53:40;;;;;;;7.32;1.20;;;;;;;;;;5015529;28;20022;-86
2022/10/26 07:56:05;;;;;;;4.03;0.95;;;;;;;;;;5020847;28;20041;-88
2022/10/26 07:58:31;;;;;;;10.25;1.35;;;;;;;;;;5023234;28;20044;-86
2022/10/26 08:00:56;;;;;;;7.23;1.50;;;;;;;;;;5026166;28;20029;-87
2022/10/26 08:03:21;;;;;;;1.27;0.70;;;;;;;;;;5039291;28;20292;-86
2022/10/26 08:05:50;;;;;;;11.50;0.98;;;;;;;;;;5015494;28;20351;-86
2022/10/26 08:08:18;;;;;;;6.03;0.77;;;;;;;;;;5017199;28;20029;-88
2022/10/26 08:10:43;;;;;;;3.92;1.08;;;;;;;;;;5007684;28;20024;-87
2022/10/26 08:13:09;;;;;;;1.80;1.08;;;;;;;;;;5006828;28;20026;-88
2022/10/26 08:15:34;;;;;;;2.15;0.82;;;;;;;;;;5007160;28;20014;-87
2022/10/26 08:17:59;;;;;;;4.03;1.08;;;;;;;;;;5007423;28;20030;-88
2022/10/26 08:20:25;;;;;;;2.22;0.60;;;;;;;;;;5009393;28;20032;-88
2022/10/26 08:22:51;;;;;;;1.98;0.68;;;;;;;;;;5007351;28;20018;-88
2022/10/26 08:25:16;;;;;;;1.30;0.80;;;;;;;;;;5010071;28;20037;-87
2022/10/26 08:27:42;;;;;;;1.83;0.88;;;;;;;;;;5007679;28;20030;-86
2022/10/26 08:30:07;;;;;;;1.83;0.70;;;;;;;;;;5004105;28;20046;-87
2022/10/26 08:32:32;;;;;;;7.22;1.15;;;;;;;;;;5005571;28;20312;-87
2022/10/26 08:34:58;;;;;;;1.02;0.57;;;;;;;;;;5004599;28;20026;-89
2022/10/26 08:37:23;;;;;;;2.55;0.75;;;;;;;;;;5007203;28;20453;-87
2022/10/26 08:39:48;;;;;;;9.73;1.40;;;;;;;;;;5007053;28;20486;-87
2022/10/26 08:42:17;;;;;;;3.50;0.97;;;;;;;;;;5004655;28;20284;-87
2022/10/26 08:44:47;;;;;;;2.70;1.40;;;;;;;;;;5003606;28;20423;-87
2022/10/26 08:47:12;;;;;;;2.17;1.02;;;;;;;;;;5005624;28;20562;-89
2022/10/26 08:49:43;;;;;;;3.80;0.63;;;;;;;;;;5005212;28;20034;-87
2022/10/26 08:52:11;;;;;;;7.80;1.40;;;;;;;;;;5008851;28;20053;-88
2022/10/26 08:54:38;;;;;;;6.90;1.20;;;;;;;;;;4998549;28;20136;-86
2022/10/26 08:57:10;;;;;;;6.38;1.23;;;;;;;;;;5006968;28;20025;-86
2022/10/26 08:59:48;;;;;;;4.18;1.35;;;;;;;;;;5004721;28;20009;-86
2022/10/26 09:02:14;;;;;;;5.60;1.58;;;;;;;;;;5008990;28;20064;-87
2022/10/26 09:04:40;;;;;;;0.85;0.57;;;;;;;;;;5009428;28;20108;-86
2022/10/26 09:07:08;;;;;;;4.35;1.30;;;;;;;;;;5009952;28;20077;-86
2022/10/26 09:09:33;;;;;;;2.17;0.73;;;;;;;;;;5007901;28;20025;-86
2022/10/26 09:12:05;;;;;;;9.00;1.43;;;;;;;;;;5003391;28;20389;-86
2022/10/26 09:14:39;;;;;;;6.72;1.63;;;;;;;;;;5000495;28;20665;-86
2022/10/26 09:17:12;;;;;;;6.57;0.95;;;;;;;;;;5006338;28;20044;-86
2022/10/26 09:19:56;;;;;;;12.55;1.10;;;;;;;;;;5007240;28;20020;-86
2022/10/26 09:22:31;;;;;;;4.60;1.17;;;;;;;;;;5006279;28;20022;-86
2022/10/26 09:24:59;;;;;;;10.43;1.40;;;;;;;;;;5009257;28;20030;-86
2022/10/26 09:27:41;;;;;;;8.68;1.20;;;;;;;;;;5007123;28;20026;-86
2022/10/26 09:30:12;;;;;;;4.93;1.50;;;;;;;;;;5020182;28;20210;-87
2022/10/26 09:32:41;;;;;;;1.23;0.70;;;;;;;;;;5025248;28;20028;-89
2022/10/26 09:35:24;;;;;;;16.92;2.05;;;;;;;;;;5010129;28;20018;-86
2022/10/26 09:37:51;;;;;;;4.45;1.45;;;;;;;;;;5002891;28;20496;-86
2022/10/26 09:40:19;;;;;;;2.72;0.80;;;;;;;;;;5009383;28;20022;-86
2022/10/26 09:42:50;;;;;;;4.20;0.90;;;;;;;;;;5007259;28;20494;-86
2022/10/26 09:45:24;;;;;;;8.18;1.13;;;;;;;;;;5007583;28;20509;-86
2022/10/26 09:47:53;;;;;;;21.15;2.15;;;;;;;;;;5004991;28;20029;-86
2022/10/26 09:50:25;;;;;;;4.78;1.35;;;;;;;;;;5010702;28;20072;-87
2022/10/26 09:52:50;;;;;;;7.03;1.50;;;;;;;;;;5010288;28;20497;-87
2022/10/26 09:55:16;;;;;;;2.42;0.88;;;;;;;;;;5010432;28;20022;-88
2022/10/26 09:57:43;;;;;;;6.55;1.15;;;;;;;;;;5007334;28;20057;-85
2022/10/26 10:00:16;;;;;;;6.07;2.85;;;;;;;;;;5008718;28;20559;-87
2022/10/26 10:02:42;;;;;;;8.57;1.65;;;;;;;;;;5009583;28;20398;-87
2022/10/26 10:05:22;;;;;;;7.38;1.35;;;;;;;;;;5009430;28;20478;-87
2022/10/26 10:07:47;;;;;;;3.70;1.00;;;;;;;;;;5009723;28;20034;-87
2022/10/26 10:10:17;;;;;;;14.50;1.40;;;;;;;;;;5025040;28;20099;-88
2022/10/26 10:12:42;;;;;;;;;;;;;;;;;;5008015;28;20034;-87
2022/10/26 10:15:18;;;;;;;7.77;1.97;;;;;;;;;;5009022;28;19914;-88
2022/10/26 10:17:51;;;;;;;9.82;2.22;;;;;;;;;;5007247;28;20026;-87
2022/10/26 10:20:21;;;;;;;4.70;1.70;;;;;;;;;;5007582;28;20057;-86
2022/10/26 10:22:56;;;;;;;7.68;1.73;;;;;;;;;;5006254;28;20281;-87
2022/10/26 10:25:25;;;;;;;5.45;1.90;;;;;;;;;;5007156;28;20497;-89
2022/10/26 10:27:53;;;;;;;5.07;1.30;;;;;;;;;;4998021;28;20025;-87
2022/10/26 10:30:26;;;;;;;12.02;1.50;;;;;;;;;;5005165;28;20416;-87
2022/10/26 10:33:05;;;;;;;9.35;1.33;;;;;;;;;;5000660;28;20477;-87
2022/10/26 10:35:30;;;;;;;14.00;2.63;;;;;;;;;;5008879;28;20080;-87
2022/10/26 10:37:56;;;;;;;7.70;1.98;;;;;;;;;;5008965;28;20486;-87
2022/10/26 10:40:23;;;;;;;2.35;1.00;;;;;;;;;;5007896;28;20045;-87
2022/10/26 10:42:50;;;;;;;3.97;1.35;;;;;;;;;;5017409;28;20022;-87
2022/10/26 10:45:20;;;;;;;7.43;1.58;;;;;;;;;;5009300;28;20022;-87
2022/10/26 10:48:12;;;;;;;15.30;2.28;;;;;;;;;;5005935;28;20053;-87
2022/10/26 10:50:56;;;;;;;9.20;1.70;;;;;;;;;;5007918;28;20053;-87
2022/10/26 10:53:24;;;;;;;6.93;1.73;;;;;;;;;;5003974;28;20128;-87
2022/10/26 10:56:07;;;;;;;5.93;1.42;;;;;;;;;;5001695;28;20105;-86
2022/10/26 10:58:42;;;;;;;5.28;1.70;;;;;;;;;;5003998;28;20049;-87
2022/10/26 11:01:12;;;;;;;5.97;0.90;;;;;;;;;;5010733;28;20080;-87
2022/10/26 11:03:50;;;;;;;6.05;1.95;;;;;;;;;;5006516;28;20026;-86
2022/10/26 11:06:20;;;;;;;7.97;1.42;;;;;;;;;;5019849;28;20576;-87
2022/10/26 11:08:49;;;;;;;12.45;1.85;;;;;;;;;;5007348;28;20436;-87
2022/10/26 11:11:17;;;;;;;4.80;1.67;;;;;;;;;;5006162;28;20052;-87
2022/10/26 11:13:47;;;;;;;8.65;1.50;;;;;;;;;;5006351;28;20091;-87
2022/10/26 11:16:15;;;;;;;9.23;3.20;;;;;;;;;;5010701;28;20018;-86
2022/10/26 11:18:44;;;;;;;10.35;1.70;;;;;;;;;;5006705;28;20022;-86
2022/10/26 11:21:27;;;;;;;8.10;1.83;;;;;;;;;;5025381;28;20013;-87
2022/10/26 11:24:09;;;;;;;7.90;1.67;;;;;;;;;;5007729;28;20517;-87
2022/10/26 11:26:51;;;;;;;12.25;2.45;;;;;;;;;;5006293;28;20037;-86
2022/10/26 11:29:35;;;;;;;9.73;1.75;;;;;;;;;;5005260;28;20061;-86
2022/10/26 11:32:14;;;;;;;19.10;2.78;;;;;;;;;;4987662;28;20037;-87
2022/10/26 11:34:39;;;;;;;9.20;2.05;;;;;;;;;;5006223;28;20389;-87
2022/10/26 11:37:10;;;;;;;8.67;2.10;;;;;;;;;;5005666;28;20018;-87
2022/10/26 11:39:45;;;;;;;9.73;2.00;;;;;;;;;;5007128;28;20493;-86
2022/10/26 11:42:20;;;;;;;7.30;1.90;;;;;;;;;;5019244;28;20030;-87
2022/10/26 11:44:50;;;;;;;13.32;2.20;;;;;;;;;;5005618;28;20028;-87
2022/10/26 11:47:18;;;;;;;11.50;2.53;;;;;;;;;;5001104;28;20061;-87
2022/10/26 11:49:50;;;;;;;10.80;2.08;;;;;;;;;;5007910;28;20054;-87
2022/10/26 11:52:23;;;;;;;6.03;1.88;;;;;;;;;;5004916;28;20497;-87
2022/10/26 11:54:57;;;;;;;4.75;1.45;;;;;;;;;;5007477;28;20025;-86
2022/10/26 11:57:23;;;;;;;3.92;1.40;;;;;;;;;;5002451;28;20023;-87
2022/10/26 11:59:50;;;;;;;9.15;1.70;;;;;;;;;;5007228;28;20022;-87
2022/10/26 12:02:20;;;;;;;4.63;1.30;;;;;;;;;;5007897;28;20022;-87
2022/10/26 12:04:48;;;;;;;5.40;1.15;;;;;;;;;;5008525;28;20508;-87
2022/10/26 12:07:34;;;;;;;4.55;1.23;;;;;;;;;;5021803;28;20042;-86
2022/10/26 12:10:00;;;;;;;2.83;1.10;;;;;;;;;;5002102;28;20026;-87
2022/10/26 12:12:31;;;;;;;7.93;1.15;;;;;;;;;;5005037;28;20030;-86
2022/10/26 12:15:08;;;;;;;7.25;1.20;;;;;;;;;;5008617;28;20034;-87
2022/10/26 12:17:54;;;;;;;5.40;1.05;;;;;;;;;;5007401;28;20026;-87
2022/10/26 12:20:22;;;;;;;3.30;0.95;;;;;;;;;;5008546;28;20116;-87
2022/10/26 12:22:47;;;;;;;7.88;1.33;;;;;;;;;;5006205;28;20024;-86
2022/10/26 12:25:12;;;;;;;3.05;1.00;;;;;;;;;;5024267;28;20022;-87
2022/10/26 12:27:38;;;;;;;5.78;0.95;;;;;;;;;;5008740;28;20034;-86
2022/10/26 12:30:21;;;;;;;3.47;0.83;;;;;;;;;;5006372;28;20539;-85
2022/10/26 12:32:49;;;;;;;1.83;0.80;;;;;;;;;;5006910;28;20026;-86
2022/10/26 12:35:28;;;;;;;5.05;0.98;;;;;;;;;;5026584;23;20039;-69
2022/10/26 12:37:53;;;;;;;3.88;1.05;;;;;;;;;;4989752;28;20029;-68
2022/10/26 12:40:38;;;;;;;3.03;0.98;;;;;;;;;;4989564;28;20026;-67
2022/10/26 12:43:13;;;;;;;2.67;0.82;;;;;;;;;;4983689;28;20022;-68
2022/10/26 12:45:38;;;;;;;7.00;1.05;;;;;;;;;;4988505;28;20026;-68
2022/10/26 12:48:04;;;;;;;9.02;1.10;;;;;;;;;;5074789;23;20507;-71
2022/10/26 12:50:29;;;;;;;5.28;1.00;;;;;;;;;;5027793;28;20017;-70
2022/10/26 12:52:56;;;;;;;1.87;0.70;;;;;;;;;;5028842;28;20075;-70
2022/10/26 12:55:24;;;;;;;5.68;1.35;;;;;;;;;;5029261;28;20302;-71
2022/10/26 12:58:09;;;;;;;3.05;0.88;;;;;;;;;;5033690;28;20021;-71
2022/10/26 13:00:38;;;;;;;6.15;0.88;;;;;;;;;;5007245;28;20037;-72
2022/10/26 13:03:03;;;;;;;7.20;1.08;;;;;;;;;;5038915;28;20022;-71
2022/10/26 13:05:31;;;;;;;5.53;0.95;;;;;;;;;;5049649;28;20017;-71
2022/10/26 13:08:00;;;;;;;3.97;1.23;;;;;;;;;;5044168;28;20384;-72
2022/10/26 13:10:25;;;;;;;5.13;1.13;;;;;;;;;;5052555;28;20028;-71
2022/10/26 13:12:51;;;;;;;12.38;2.38;;;;;;;;;;5039770;28;20037;-71
2022/10/26 13:15:24;;;;;;;5.70;0.80;;;;;;;;;;5043743;28;20470;-71
2022/10/26 13:18:13;;;;;;;2.88;0.77;;;;;;;;;;5047557;28;20420;-70
2022/10/26 13:20:51;;;;;;;9.07;1.05;;;;;;;;;;5049316;28;20017;-70
2022/10/26 13:23:22;;;;;;;5.53;0.90;;;;;;;;;;5043904;28;20029;-72
2022/10/26 13:26:14;;;;;;;7.40;1.00;;;;;;;;;;5046726;28;20033;-71
2022/10/26 13:28:39;;;;;;;6.07;1.25;;;;;;;;;;5042996;28;20443;-71
2022/10/26 13:31:09;;;;;;;5.90;0.70;;;;;;;;;;5046199;28;20104;-71
2022/10/26 13:33:36;;;;;;;7.05;0.90;;;;;;;;;;5039953;28;20036;-71
2022/10/26 13:36:05;;;;;;;3.33;0.82;;;;;;;;;;5048001;28;20144;-72
2022/10/26 13:38:31;;;;;;;2.47;0.63;;;;;;;;;;5040404;28;20480;-71
2022/10/26 13:41:09;;;;;;;4.30;0.98;;;;;;;;;;5051528;28;20080;-72
2022/10/26 13:43:36;;;;;;;5.95;0.77;;;;;;;;;;5041858;28;20029;-71
2022/10/26 13:46:02;;;;;;;3.83;1.10;;;;;;;;;;5038473;28;20026;-70
2022/10/26 13:48:30;;;;;;;5.13;0.60;;;;;;;;;;5046026;28;20033;-71
2022/10/26 13:51:01;;;;;;;4.85;0.77;;;;;;;;;;5043208;28;20025;-70
2022/10/26 13:53:38;;;;;;;2.38;0.70;;;;;;;;;;5049546;28;20025;-71
2022/10/26 13:56:06;;;;;;;4.65;0.98;;;;;;;;;;5026090;28;20025;-71
2022/10/26 13:58:42;;;;;;;3.17;0.70;;;;;;;;;;5041239;28;20493;-71
2022/10/26 14:01:13;;;;;;;5.63;0.82;;;;;;;;;;5043030;28;20025;-71
2022/10/26 14:03:39;;;;;;;8.52;1.10;;;;;;;;;;5048719;28;20035;-71
2022/10/26 14:06:07;;;;;;;5.38;0.90;;;;;;;;;;5038386;28;20040;-71
2022/10/26 14:08:32;;;;;;;10.05;1.10;;;;;;;;;;5038967;28;20029;-71
2022/10/26 14:10:58;;;;;;;7.40;0.90;;;;;;;;;;5051185;28;20017;-71
2022/10/26 14:13:25;;;;;;;3.97;0.95;;;;;;;;;;5041516;28;20057;-71
2022/10/26 14:15:51;;;;;;;6.10;0.80;;;;;;;;;;5045688;28;20062;-70
2022/10/26 14:18:18;;;;;;;5.28;1.27;;;;;;;;;;5041897;28;20017;-70
2022/10/26 14:20:47;;;;;;;4.75;1.80;;;;;;;;;;5050247;28;20101;-71
2022/10/26 14:23:25;;;;;;;2.22;0.80;;;;;;;;;;5032454;28;20040;-71
2022/10/26 14:25:54;;;;;;;4.20;0.85;;;;;;;;;;5049354;28;20021;-71
2022/10/26 14:28:27;;;;;;;2.85;0.82;;;;;;;;;;5040178;28;20028;-71
2022/10/26 14:30:52;;;;;;;11.95;1.40;;;;;;;;;;5043758;28;20374;-71
2022/10/26 14:33:19;;;;;;;6.72;0.90;;;;;;;;;;5040079;28;20029;-72
2022/10/26 14:35:45;;;;;;;2.15;0.60;;;;;;;;;;5048472;28;20085;-72
2022/10/26 14:38:22;;;;;;;10.80;1.25;;;;;;;;;;5039160;28;20021;-71
2022/10/26 14:40:47;;;;;;;1.42;0.60;;;;;;;;;;5048874;28;20017;-70
2022/10/26 14:43:16;;;;;;;8.48;0.80;;;;;;;;;;5047450;28;20024;-72
2022/10/26 14:45:45;;;;;;;4.73;0.77;;;;;;;;;;5050222;28;20028;-72
2022/10/26 14:48:19;;;;;;;4.05;1.52;;;;;;;;;;5046083;28;20060;-71
2022/10/26 14:50:56;;;;;;;5.97;0.75;;;;;;;;;;5041872;28;20537;-72
2022/10/26 14:53:22;;;;;;;2.80;0.60;;;;;;;;;;5037719;28;20028;-70